Landisville, NJ (08326)

4:01 AM EDT en Abril 01, 2015 (GMT -0400)
Cedar Branch | | Change Station
CLOSE
Current Station
Estación meteorológica personal
Location: Vineland, NJ
Altura: 89 ft
Estaciones meteorológicas cercanas

Alt 89 ft 39.47 °N, 74.96 °W | Updated 9 seconds ago

Despejado
Despejado
35.4 ° F
Sensación térmica 35 ° F
N
0.4
Viento Variable Viento desde NNE
Gusts 2.5 mph

Hoy
Alta -- | Baja -- ° F
--% Posibilidad de precipitaciones
Ayer
Alta -- | Baja -- ° F
Precip. -- pul
6:44 AM 7:23 PM
Gibosa creciente, 91% visible
Presión 29.91 pul
Visibilidad 10.0 Millas
Nubes Despejado
Vientos helados 35 ° F
Punto de rocío 26 ° F
Humedad 67%
Precipitaciones 0.00 pul
Espesor de la nieve No disponible.
UV 0.0 de una escala de 12
Polen 6.90 de una escala de 12
Calidad del aire No disponible.
Flu Activity No disponible.
METAR KMIV 010754Z AUTO 31006KT 10SM CLR 02/M02 A2991 RMK AO2 SLP127 T00171017

More Conditions Fewer Conditions

Presión 29.91 pul
Visibilidad 10.0 Millas
Nubes Despejado
Vientos helados 35 ° F
Punto de rocío 26 ° F
Humedad 67%
Precipitaciones 0.00 pul
Espesor de la nieve No disponible.
UV 0.0 de una escala de 12
Polen 6.90 de una escala de 12
Calidad del aire No disponible.
Flu Activity No disponible.
METAR KMIV 010754Z AUTO 31006KT 10SM CLR 02/M02 A2991 RMK AO2 SLP127 T00171017

More Conditions Fewer Conditions

10-Day Weather Forecast

Almanac

Astronomía

Apr. 01, 2015 Salida Puesta
Hora real
Crepúsculo civil
Crepúsculo náutico
Crepúsculo astronómico
Luna
Horas de luz
Horas de luz
Tomorrow will be .
, % of the Moon is Illuminated

Extremos de hoy

Máximos del estado Bajos del estado

Community

WunderPhotos

Upload Photos

1,809,930 ¡fotos cargadas!

WunderBlogs® & News

Nearby

Calidad del aire

  Calidad del aire Índice AQ Contaminante
Not available.

Grosos de nieve

Estación Profundido Altura

Actividad de terremotos

Ciudad Distance Mag. Tiempo y dato
Magnitud mínima muestra es 2,5.

Temperaturas de aguas costeras

Lugar Temperatura

Stations

Estaciones meteorológicas cercanas

Ubicación de la estación Temp. Vientos helados Punto de rocío Humedad Viento Precip. Alt Actualizado Tipo